sensor_id;sensor_type;location;lat;lon;timestamp;P1;durP1;ratioP1;P2;durP2;ratioP2
1665;SDS011;831;48.308;14.294;2022-07-06T00:00:49;21.40;;;20.10;;
1665;SDS011;831;48.308;14.294;2022-07-06T00:03:16;21.83;;;20.53;;
1665;SDS011;831;48.308;14.294;2022-07-06T00:05:42;23.27;;;21.73;;
1665;SDS011;831;48.308;14.294;2022-07-06T00:08:09;22.90;;;21.50;;
1665;SDS011;831;48.308;14.294;2022-07-06T00:10:35;23.13;;;21.77;;
1665;SDS011;831;48.308;14.294;2022-07-06T00:13:02;23.20;;;21.80;;
1665;SDS011;831;48.308;14.294;2022-07-06T00:15:30;21.60;;;20.30;;
1665;SDS011;831;48.308;14.294;2022-07-06T00:17:56;21.13;;;19.83;;
1665;SDS011;831;48.308;14.294;2022-07-06T00:20:23;21.50;;;20.20;;
1665;SDS011;831;48.308;14.294;2022-07-06T00:22:50;21.07;;;19.70;;
1665;SDS011;831;48.308;14.294;2022-07-06T00:25:16;20.43;;;19.33;;
1665;SDS011;831;48.308;14.294;2022-07-06T00:27:43;21.63;;;20.30;;
1665;SDS011;831;48.308;14.294;2022-07-06T00:30:09;21.30;;;20.10;;
1665;SDS011;831;48.308;14.294;2022-07-06T00:32:37;22.00;;;20.60;;
1665;SDS011;831;48.308;14.294;2022-07-06T00:35:04;21.67;;;20.40;;
1665;SDS011;831;48.308;14.294;2022-07-06T00:37:31;21.70;;;20.40;;
1665;SDS011;831;48.308;14.294;2022-07-06T00:39:58;20.90;;;19.80;;
1665;SDS011;831;48.308;14.294;2022-07-06T00:42:24;21.80;;;20.50;;
1665;SDS011;831;48.308;14.294;2022-07-06T00:44:51;22.23;;;20.83;;
1665;SDS011;831;48.308;14.294;2022-07-06T00:47:17;22.03;;;20.60;;
1665;SDS011;831;48.308;14.294;2022-07-06T00:49:45;21.70;;;20.50;;
1665;SDS011;831;48.308;14.294;2022-07-06T00:52:29;21.77;;;20.47;;
1665;SDS011;831;48.308;14.294;2022-07-06T00:54:56;21.90;;;20.60;;
1665;SDS011;831;48.308;14.294;2022-07-06T00:57:22;21.27;;;20.07;;
1665;SDS011;831;48.308;14.294;2022-07-06T00:59:49;21.63;;;20.33;;
1665;SDS011;831;48.308;14.294;2022-07-06T01:02:15;21.97;;;20.47;;
1665;SDS011;831;48.308;14.294;2022-07-06T01:04:42;22.10;;;20.80;;
1665;SDS011;831;48.308;14.294;2022-07-06T01:07:10;22.10;;;20.57;;
1665;SDS011;831;48.308;14.294;2022-07-06T01:09:36;21.33;;;20.03;;
1665;SDS011;831;48.308;14.294;2022-07-06T01:12:03;22.10;;;20.80;;
1665;SDS011;831;48.308;14.294;2022-07-06T01:14:30;22.23;;;20.70;;
1665;SDS011;831;48.308;14.294;2022-07-06T01:16:57;21.40;;;20.07;;
1665;SDS011;831;48.308;14.294;2022-07-06T01:19:24;22.37;;;20.97;;
1665;SDS011;831;48.308;14.294;2022-07-06T01:21:52;22.00;;;20.70;;
1665;SDS011;831;48.308;14.294;2022-07-06T01:24:19;20.93;;;19.63;;
1665;SDS011;831;48.308;14.294;2022-07-06T01:26:45;22.30;;;21.00;;
1665;SDS011;831;48.308;14.294;2022-07-06T01:29:12;21.10;;;19.80;;
1665;SDS011;831;48.308;14.294;2022-07-06T01:31:44;23.60;;;22.10;;
1665;SDS011;831;48.308;14.294;2022-07-06T01:34:11;23.77;;;22.10;;
1665;SDS011;831;48.308;14.294;2022-07-06T01:36:38;22.57;;;21.10;;
1665;SDS011;831;48.308;14.294;2022-07-06T01:39:07;23.37;;;21.77;;
1665;SDS011;831;48.308;14.294;2022-07-06T01:41:34;24.00;;;22.60;;
1665;SDS011;831;48.308;14.294;2022-07-06T01:44:00;24.63;;;23.23;;
1665;SDS011;831;48.308;14.294;2022-07-06T01:46:27;23.97;;;22.47;;
1665;SDS011;831;48.308;14.294;2022-07-06T01:48:54;24.47;;;22.77;;
1665;SDS011;831;48.308;14.294;2022-07-06T01:51:20;24.83;;;23.43;;
1665;SDS011;831;48.308;14.294;2022-07-06T01:53:47;25.30;;;23.70;;
1665;SDS011;831;48.308;14.294;2022-07-06T01:56:15;23.73;;;22.40;;
1665;SDS011;831;48.308;14.294;2022-07-06T01:58:44;23.90;;;22.40;;
1665;SDS011;831;48.308;14.294;2022-07-06T02:01:11;23.00;;;21.67;;
1665;SDS011;831;48.308;14.294;2022-07-06T02:03:38;23.07;;;21.67;;
1665;SDS011;831;48.308;14.294;2022-07-06T02:06:05;23.77;;;22.37;;
1665;SDS011;831;48.308;14.294;2022-07-06T02:08:31;24.07;;;22.47;;
1665;SDS011;831;48.308;14.294;2022-07-06T02:10:58;23.50;;;22.20;;
1665;SDS011;831;48.308;14.294;2022-07-06T02:13:26;23.07;;;21.77;;
1665;SDS011;831;48.308;14.294;2022-07-06T02:15:53;23.13;;;21.73;;
1665;SDS011;831;48.308;14.294;2022-07-06T02:18:19;23.27;;;21.97;;
1665;SDS011;831;48.308;14.294;2022-07-06T02:20:46;23.10;;;21.60;;
1665;SDS011;831;48.308;14.294;2022-07-06T02:23:12;22.27;;;20.97;;
1665;SDS011;831;48.308;14.294;2022-07-06T02:25:39;22.80;;;21.40;;
1665;SDS011;831;48.308;14.294;2022-07-06T02:28:05;22.90;;;21.50;;
1665;SDS011;831;48.308;14.294;2022-07-06T02:30:33;23.73;;;22.23;;
1665;SDS011;831;48.308;14.294;2022-07-06T02:33:00;23.10;;;21.73;;
1665;SDS011;831;48.308;14.294;2022-07-06T02:35:28;21.80;;;20.50;;
1665;SDS011;831;48.308;14.294;2022-07-06T02:37:55;22.63;;;21.33;;
1665;SDS011;831;48.308;14.294;2022-07-06T02:40:22;23.67;;;22.27;;
1665;SDS011;831;48.308;14.294;2022-07-06T02:42:48;24.23;;;22.73;;
1665;SDS011;831;48.308;14.294;2022-07-06T02:45:15;22.73;;;21.43;;
1665;SDS011;831;48.308;14.294;2022-07-06T02:47:43;23.43;;;21.93;;
1665;SDS011;831;48.308;14.294;2022-07-06T02:50:09;23.23;;;21.83;;
1665;SDS011;831;48.308;14.294;2022-07-06T02:52:36;23.33;;;22.03;;
1665;SDS011;831;48.308;14.294;2022-07-06T02:55:03;22.83;;;21.47;;
1665;SDS011;831;48.308;14.294;2022-07-06T02:57:29;23.90;;;22.37;;
1665;SDS011;831;48.308;14.294;2022-07-06T02:59:56;22.97;;;21.57;;
1665;SDS011;831;48.308;14.294;2022-07-06T03:02:22;23.70;;;22.40;;
1665;SDS011;831;48.308;14.294;2022-07-06T03:04:51;22.33;;;21.13;;
1665;SDS011;831;48.308;14.294;2022-07-06T03:07:17;23.10;;;21.80;;
1665;SDS011;831;48.308;14.294;2022-07-06T03:09:44;24.67;;;23.10;;
1665;SDS011;831;48.308;14.294;2022-07-06T03:12:10;24.17;;;22.70;;
1665;SDS011;831;48.308;14.294;2022-07-06T03:14:37;26.63;;;25.03;;
1665;SDS011;831;48.308;14.294;2022-07-06T03:17:04;24.60;;;23.20;;
1665;SDS011;831;48.308;14.294;2022-07-06T03:19:30;25.53;;;24.00;;
1665;SDS011;831;48.308;14.294;2022-07-06T03:21:58;26.50;;;24.90;;
1665;SDS011;831;48.308;14.294;2022-07-06T03:24:25;25.17;;;23.60;;
1665;SDS011;831;48.308;14.294;2022-07-06T03:26:51;24.30;;;22.83;;
1665;SDS011;831;48.308;14.294;2022-07-06T03:29:18;26.10;;;24.50;;
1665;SDS011;831;48.308;14.294;2022-07-06T03:31:45;26.40;;;24.90;;
1665;SDS011;831;48.308;14.294;2022-07-06T03:34:12;27.43;;;25.53;;
1665;SDS011;831;48.308;14.294;2022-07-06T03:36:38;27.60;;;26.00;;
1665;SDS011;831;48.308;14.294;2022-07-06T03:39:06;26.00;;;24.50;;
1665;SDS011;831;48.308;14.294;2022-07-06T03:41:33;25.63;;;24.03;;
1665;SDS011;831;48.308;14.294;2022-07-06T03:44:00;24.60;;;23.20;;
1665;SDS011;831;48.308;14.294;2022-07-06T03:46:26;25.60;;;24.10;;
1665;SDS011;831;48.308;14.294;2022-07-06T03:48:53;26.97;;;25.17;;
1665;SDS011;831;48.308;14.294;2022-07-06T03:51:20;26.07;;;24.40;;
1665;SDS011;831;48.308;14.294;2022-07-06T03:53:46;24.87;;;23.17;;
1665;SDS011;831;48.308;14.294;2022-07-06T03:56:15;24.43;;;23.03;;
1665;SDS011;831;48.308;14.294;2022-07-06T03:58:54;25.10;;;23.70;;
1665;SDS011;831;48.308;14.294;2022-07-06T04:01:21;25.97;;;24.37;;
1665;SDS011;831;48.308;14.294;2022-07-06T04:03:47;25.37;;;23.83;;
1665;SDS011;831;48.308;14.294;2022-07-06T04:06:14;28.23;;;26.53;;
1665;SDS011;831;48.308;14.294;2022-07-06T04:08:41;26.63;;;25.00;;
1665;SDS011;831;48.308;14.294;2022-07-06T04:11:07;28.60;;;26.90;;
1665;SDS011;831;48.308;14.294;2022-07-06T04:13:35;29.40;;;27.60;;
1665;SDS011;831;48.308;14.294;2022-07-06T04:16:02;27.43;;;25.60;;
1665;SDS011;831;48.308;14.294;2022-07-06T04:18:29;28.87;;;27.07;;
1665;SDS011;831;48.308;14.294;2022-07-06T04:20:55;28.00;;;26.20;;
1665;SDS011;831;48.308;14.294;2022-07-06T04:23:23;29.83;;;28.03;;
1665;SDS011;831;48.308;14.294;2022-07-06T04:25:49;29.03;;;27.23;;
1665;SDS011;831;48.308;14.294;2022-07-06T04:28:16;31.40;;;29.30;;
1665;SDS011;831;48.308;14.294;2022-07-06T04:30:44;31.23;;;29.13;;
1665;SDS011;831;48.308;14.294;2022-07-06T04:33:10;31.53;;;29.53;;
1665;SDS011;831;48.308;14.294;2022-07-06T04:35:37;30.45;;;28.45;;
1665;SDS011;831;48.308;14.294;2022-07-06T04:38:03;28.90;;;27.03;;
1665;SDS011;831;48.308;14.294;2022-07-06T04:40:31;31.53;;;29.43;;
1665;SDS011;831;48.308;14.294;2022-07-06T04:42:57;31.97;;;29.90;;
1665;SDS011;831;48.308;14.294;2022-07-06T04:45:24;32.47;;;30.30;;
1665;SDS011;831;48.308;14.294;2022-07-06T04:47:52;32.47;;;30.43;;
1665;SDS011;831;48.308;14.294;2022-07-06T04:50:19;35.27;;;33.17;;
1665;SDS011;831;48.308;14.294;2022-07-06T04:52:46;32.10;;;30.10;;
1665;SDS011;831;48.308;14.294;2022-07-06T04:55:12;34.07;;;31.70;;
1665;SDS011;831;48.308;14.294;2022-07-06T04:57:39;34.03;;;31.63;;
1665;SDS011;831;48.308;14.294;2022-07-06T05:00:06;31.30;;;29.40;;
1665;SDS011;831;48.308;14.294;2022-07-06T05:02:33;34.53;;;32.23;;
1665;SDS011;831;48.308;14.294;2022-07-06T05:05:01;32.30;;;30.20;;
1665;SDS011;831;48.308;14.294;2022-07-06T05:07:28;31.67;;;29.70;;
1665;SDS011;831;48.308;14.294;2022-07-06T05:09:56;31.80;;;29.80;;
1665;SDS011;831;48.308;14.294;2022-07-06T05:12:22;32.80;;;30.90;;
1665;SDS011;831;48.308;14.294;2022-07-06T05:14:49;32.30;;;30.20;;
1665;SDS011;831;48.308;14.294;2022-07-06T05:17:15;30.67;;;28.70;;
1665;SDS011;831;48.308;14.294;2022-07-06T05:19:42;33.87;;;31.83;;
1665;SDS011;831;48.308;14.294;2022-07-06T05:22:10;33.23;;;31.20;;
1665;SDS011;831;48.308;14.294;2022-07-06T05:24:37;31.97;;;29.80;;
1665;SDS011;831;48.308;14.294;2022-07-06T05:27:04;29.30;;;27.33;;
1665;SDS011;831;48.308;14.294;2022-07-06T05:29:30;30.47;;;28.77;;
1665;SDS011;831;48.308;14.294;2022-07-06T05:31:57;30.50;;;28.70;;
1665;SDS011;831;48.308;14.294;2022-07-06T05:34:23;29.67;;;27.97;;
1665;SDS011;831;48.308;14.294;2022-07-06T05:36:50;28.87;;;27.03;;
1665;SDS011;831;48.308;14.294;2022-07-06T05:39:18;30.00;;;28.20;;
1665;SDS011;831;48.308;14.294;2022-07-06T05:41:47;30.97;;;29.17;;
1665;SDS011;831;48.308;14.294;2022-07-06T05:44:14;30.00;;;28.20;;
1665;SDS011;831;48.308;14.294;2022-07-06T05:46:41;28.03;;;26.37;;
1665;SDS011;831;48.308;14.294;2022-07-06T05:49:07;28.80;;;27.10;;
1665;SDS011;831;48.308;14.294;2022-07-06T05:51:51;29.50;;;27.70;;
1665;SDS011;831;48.308;14.294;2022-07-06T05:54:20;29.43;;;27.73;;
1665;SDS011;831;48.308;14.294;2022-07-06T05:56:47;28.37;;;26.77;;
1665;SDS011;831;48.308;14.294;2022-07-06T05:59:13;29.73;;;27.93;;
1665;SDS011;831;48.308;14.294;2022-07-06T06:01:40;26.43;;;24.60;;
1665;SDS011;831;48.308;14.294;2022-07-06T06:04:06;25.50;;;24.00;;
1665;SDS011;831;48.308;14.294;2022-07-06T06:06:33;26.97;;;25.57;;
1665;SDS011;831;48.308;14.294;2022-07-06T06:09:00;27.03;;;25.43;;
1665;SDS011;831;48.308;14.294;2022-07-06T06:11:28;26.77;;;25.27;;
1665;SDS011;831;48.308;14.294;2022-07-06T06:13:55;25.67;;;24.17;;
1665;SDS011;831;48.308;14.294;2022-07-06T06:16:21;24.20;;;22.80;;
1665;SDS011;831;48.308;14.294;2022-07-06T06:18:48;15.93;;;15.13;;
1665;SDS011;831;48.308;14.294;2022-07-06T06:21:14;15.50;;;14.70;;
1665;SDS011;831;48.308;14.294;2022-07-06T06:23:41;14.27;;;13.53;;
1665;SDS011;831;48.308;14.294;2022-07-06T06:26:08;15.23;;;14.50;;
1665;SDS011;831;48.308;14.294;2022-07-06T06:28:36;15.00;;;14.30;;
1665;SDS011;831;48.308;14.294;2022-07-06T06:31:02;14.80;;;14.00;;
1665;SDS011;831;48.308;14.294;2022-07-06T06:33:29;14.20;;;13.50;;
1665;SDS011;831;48.308;14.294;2022-07-06T06:35:56;14.73;;;13.90;;
1665;SDS011;831;48.308;14.294;2022-07-06T06:38:23;14.63;;;13.80;;
1665;SDS011;831;48.308;14.294;2022-07-06T06:40:51;14.87;;;14.17;;
1665;SDS011;831;48.308;14.294;2022-07-06T06:43:17;14.33;;;13.53;;
1665;SDS011;831;48.308;14.294;2022-07-06T06:45:45;14.87;;;14.17;;
1665;SDS011;831;48.308;14.294;2022-07-06T06:48:13;14.57;;;13.87;;
1665;SDS011;831;48.308;14.294;2022-07-06T06:50:39;15.07;;;14.17;;
1665;SDS011;831;48.308;14.294;2022-07-06T06:53:06;15.13;;;14.33;;
1665;SDS011;831;48.308;14.294;2022-07-06T06:55:32;14.90;;;14.20;;
1665;SDS011;831;48.308;14.294;2022-07-06T06:57:59;14.43;;;13.73;;
1665;SDS011;831;48.308;14.294;2022-07-06T07:00:25;14.93;;;14.07;;
1665;SDS011;831;48.308;14.294;2022-07-06T07:02:53;14.80;;;14.10;;
1665;SDS011;831;48.308;14.294;2022-07-06T07:05:20;15.50;;;14.70;;
1665;SDS011;831;48.308;14.294;2022-07-06T07:07:47;15.30;;;14.40;;
1665;SDS011;831;48.308;14.294;2022-07-06T07:10:13;15.90;;;14.67;;
1665;SDS011;831;48.308;14.294;2022-07-06T07:12:44;16.20;;;15.07;;
1665;SDS011;831;48.308;14.294;2022-07-06T07:15:11;16.43;;;15.57;;
1665;SDS011;831;48.308;14.294;2022-07-06T07:17:38;17.53;;;16.70;;
1665;SDS011;831;48.308;14.294;2022-07-06T07:20:09;17.53;;;16.53;;
1665;SDS011;831;48.308;14.294;2022-07-06T07:22:36;17.83;;;16.83;;
1665;SDS011;831;48.308;14.294;2022-07-06T07:25:03;17.87;;;17.07;;
1665;SDS011;831;48.308;14.294;2022-07-06T07:27:32;19.43;;;18.33;;
1665;SDS011;831;48.308;14.294;2022-07-06T07:29:59;19.60;;;18.50;;
1665;SDS011;831;48.308;14.294;2022-07-06T07:32:25;17.87;;;16.97;;
1665;SDS011;831;48.308;14.294;2022-07-06T07:34:52;18.10;;;17.10;;
1665;SDS011;831;48.308;14.294;2022-07-06T07:37:20;17.30;;;16.50;;
1665;SDS011;831;48.308;14.294;2022-07-06T07:39:46;17.33;;;16.43;;
1665;SDS011;831;48.308;14.294;2022-07-06T07:42:13;19.17;;;17.97;;
1665;SDS011;831;48.308;14.294;2022-07-06T07:44:40;18.40;;;17.50;;
1665;SDS011;831;48.308;14.294;2022-07-06T07:47:06;19.90;;;18.80;;
1665;SDS011;831;48.308;14.294;2022-07-06T07:49:33;18.00;;;17.10;;
1665;SDS011;831;48.308;14.294;2022-07-06T07:52:03;18.23;;;17.27;;
1665;SDS011;831;48.308;14.294;2022-07-06T07:54:31;16.17;;;15.37;;
1665;SDS011;831;48.308;14.294;2022-07-06T07:56:58;16.00;;;15.00;;
1665;SDS011;831;48.308;14.294;2022-07-06T07:59:24;15.00;;;14.30;;
1665;SDS011;831;48.308;14.294;2022-07-06T08:01:51;15.53;;;14.43;;
1665;SDS011;831;48.308;14.294;2022-07-06T08:04:17;14.70;;;14.10;;
1665;SDS011;831;48.308;14.294;2022-07-06T08:06:44;14.77;;;14.07;;
1665;SDS011;831;48.308;14.294;2022-07-06T08:09:10;15.13;;;14.33;;
1665;SDS011;831;48.308;14.294;2022-07-06T08:11:38;14.60;;;14.00;;
1665;SDS011;831;48.308;14.294;2022-07-06T08:14:05;14.57;;;13.97;;
1665;SDS011;831;48.308;14.294;2022-07-06T08:16:32;13.67;;;12.97;;
1665;SDS011;831;48.308;14.294;2022-07-06T08:18:58;14.30;;;13.60;;
1665;SDS011;831;48.308;14.294;2022-07-06T08:21:25;15.20;;;14.40;;
1665;SDS011;831;48.308;14.294;2022-07-06T08:23:52;14.07;;;13.37;;
1665;SDS011;831;48.308;14.294;2022-07-06T08:26:19;14.40;;;13.70;;
1665;SDS011;831;48.308;14.294;2022-07-06T08:28:47;14.27;;;13.57;;
1665;SDS011;831;48.308;14.294;2022-07-06T08:31:13;14.13;;;13.33;;
1665;SDS011;831;48.308;14.294;2022-07-06T08:33:40;14.43;;;13.80;;
1665;SDS011;831;48.308;14.294;2022-07-06T08:36:07;14.13;;;13.43;;
1665;SDS011;831;48.308;14.294;2022-07-06T08:38:33;13.50;;;12.90;;
1665;SDS011;831;48.308;14.294;2022-07-06T08:41:00;14.03;;;13.33;;
1665;SDS011;831;48.308;14.294;2022-07-06T08:43:26;13.53;;;12.83;;
1665;SDS011;831;48.308;14.294;2022-07-06T08:45:54;13.83;;;13.23;;
1665;SDS011;831;48.308;14.294;2022-07-06T08:48:22;14.03;;;13.33;;
1665;SDS011;831;48.308;14.294;2022-07-06T08:50:49;13.73;;;13.07;;
1665;SDS011;831;48.308;14.294;2022-07-06T08:53:15;14.53;;;13.53;;
1665;SDS011;831;48.308;14.294;2022-07-06T08:55:43;13.57;;;12.90;;
1665;SDS011;831;48.308;14.294;2022-07-06T08:58:10;14.77;;;14.07;;
1665;SDS011;831;48.308;14.294;2022-07-06T09:00:37;14.03;;;13.40;;
1665;SDS011;831;48.308;14.294;2022-07-06T09:03:05;14.00;;;13.30;;
1665;SDS011;831;48.308;14.294;2022-07-06T09:05:32;14.10;;;13.43;;
1665;SDS011;831;48.308;14.294;2022-07-06T09:07:59;14.10;;;13.30;;
1665;SDS011;831;48.308;14.294;2022-07-06T09:10:28;13.30;;;12.70;;
1665;SDS011;831;48.308;14.294;2022-07-06T09:13:01;13.73;;;12.93;;
1665;SDS011;831;48.308;14.294;2022-07-06T09:15:28;13.97;;;13.27;;
1665;SDS011;831;48.308;14.294;2022-07-06T09:17:55;13.27;;;12.57;;
1665;SDS011;831;48.308;14.294;2022-07-06T09:20:23;13.50;;;12.80;;
1665;SDS011;831;48.308;14.294;2022-07-06T09:22:50;13.70;;;13.10;;
1665;SDS011;831;48.308;14.294;2022-07-06T09:25:16;14.17;;;13.57;;
1665;SDS011;831;48.308;14.294;2022-07-06T09:27:43;13.73;;;13.10;;
1665;SDS011;831;48.308;14.294;2022-07-06T09:30:13;13.53;;;12.83;;
1665;SDS011;831;48.308;14.294;2022-07-06T09:32:40;14.40;;;13.70;;
1665;SDS011;831;48.308;14.294;2022-07-06T09:35:07;14.10;;;13.50;;
1665;SDS011;831;48.308;14.294;2022-07-06T09:37:35;13.30;;;12.70;;
1665;SDS011;831;48.308;14.294;2022-07-06T09:40:02;13.97;;;13.33;;
1665;SDS011;831;48.308;14.294;2022-07-06T09:42:29;14.10;;;13.40;;
1665;SDS011;831;48.308;14.294;2022-07-06T09:44:57;14.00;;;13.07;;
1665;SDS011;831;48.308;14.294;2022-07-06T09:47:23;13.70;;;13.10;;
1665;SDS011;831;48.308;14.294;2022-07-06T09:49:52;13.67;;;13.07;;
1665;SDS011;831;48.308;14.294;2022-07-06T09:52:21;13.17;;;12.47;;
1665;SDS011;831;48.308;14.294;2022-07-06T09:54:51;14.00;;;13.30;;
1665;SDS011;831;48.308;14.294;2022-07-06T09:57:17;13.90;;;13.20;;
1665;SDS011;831;48.308;14.294;2022-07-06T09:59:49;14.20;;;13.40;;
1665;SDS011;831;48.308;14.294;2022-07-06T10:02:16;14.13;;;13.43;;
1665;SDS011;831;48.308;14.294;2022-07-06T10:04:42;13.20;;;12.50;;
1665;SDS011;831;48.308;14.294;2022-07-06T10:07:10;14.00;;;13.30;;
1665;SDS011;831;48.308;14.294;2022-07-06T10:09:37;13.40;;;12.60;;
1665;SDS011;831;48.308;14.294;2022-07-06T10:12:06;13.30;;;12.70;;
1665;SDS011;831;48.308;14.294;2022-07-06T10:14:36;13.77;;;13.07;;
1665;SDS011;831;48.308;14.294;2022-07-06T10:17:03;13.03;;;12.43;;
1665;SDS011;831;48.308;14.294;2022-07-06T10:19:30;12.90;;;12.30;;
1665;SDS011;831;48.308;14.294;2022-07-06T10:21:58;13.70;;;13.00;;
1665;SDS011;831;48.308;14.294;2022-07-06T10:24:24;13.57;;;12.77;;
1665;SDS011;831;48.308;14.294;2022-07-06T10:26:51;13.13;;;12.50;;
1665;SDS011;831;48.308;14.294;2022-07-06T10:29:20;13.53;;;12.83;;
1665;SDS011;831;48.308;14.294;2022-07-06T10:31:47;13.57;;;12.67;;
1665;SDS011;831;48.308;14.294;2022-07-06T10:34:16;13.33;;;12.70;;
1665;SDS011;831;48.308;14.294;2022-07-06T10:36:44;13.20;;;12.60;;
1665;SDS011;831;48.308;14.294;2022-07-06T10:39:14;14.07;;;13.20;;
1665;SDS011;831;48.308;14.294;2022-07-06T10:41:57;13.40;;;12.70;;
1665;SDS011;831;48.308;14.294;2022-07-06T10:44:26;13.40;;;12.70;;
1665;SDS011;831;48.308;14.294;2022-07-06T10:46:53;14.23;;;13.50;;
1665;SDS011;831;48.308;14.294;2022-07-06T10:49:20;12.97;;;12.40;;
1665;SDS011;831;48.308;14.294;2022-07-06T10:51:47;13.80;;;13.00;;
1665;SDS011;831;48.308;14.294;2022-07-06T10:54:15;13.70;;;12.90;;
1665;SDS011;831;48.308;14.294;2022-07-06T10:56:42;13.90;;;13.10;;
1665;SDS011;831;48.308;14.294;2022-07-06T10:59:10;13.70;;;13.00;;
1665;SDS011;831;48.308;14.294;2022-07-06T11:01:38;13.70;;;13.00;;
1665;SDS011;831;48.308;14.294;2022-07-06T11:04:05;13.63;;;12.73;;
1665;SDS011;831;48.308;14.294;2022-07-06T11:06:33;13.93;;;13.20;;
1665;SDS011;831;48.308;14.294;2022-07-06T11:09:00;14.00;;;13.40;;
1665;SDS011;831;48.308;14.294;2022-07-06T11:11:37;13.63;;;13.00;;
1665;SDS011;831;48.308;14.294;2022-07-06T11:14:06;13.87;;;13.10;;
1665;SDS011;831;48.308;14.294;2022-07-06T11:16:33;13.73;;;13.03;;
1665;SDS011;831;48.308;14.294;2022-07-06T11:19:04;13.93;;;13.23;;
1665;SDS011;831;48.308;14.294;2022-07-06T11:21:41;13.43;;;12.73;;
1665;SDS011;831;48.308;14.294;2022-07-06T11:24:10;12.73;;;12.13;;
1665;SDS011;831;48.308;14.294;2022-07-06T11:26:38;13.67;;;13.03;;
1665;SDS011;831;48.308;14.294;2022-07-06T11:29:05;13.70;;;13.00;;
1665;SDS011;831;48.308;14.294;2022-07-06T11:31:33;13.20;;;12.50;;
1665;SDS011;831;48.308;14.294;2022-07-06T11:34:00;13.87;;;13.07;;
1665;SDS011;831;48.308;14.294;2022-07-06T11:36:28;13.73;;;12.93;;
1665;SDS011;831;48.308;14.294;2022-07-06T11:38:55;13.97;;;13.37;;
1665;SDS011;831;48.308;14.294;2022-07-06T11:41:22;12.80;;;12.10;;
1665;SDS011;831;48.308;14.294;2022-07-06T11:43:48;12.97;;;12.37;;
1665;SDS011;831;48.308;14.294;2022-07-06T11:46:23;13.17;;;12.33;;
1665;SDS011;831;48.308;14.294;2022-07-06T11:48:50;13.23;;;12.60;;
1665;SDS011;831;48.308;14.294;2022-07-06T11:51:18;13.27;;;12.67;;
1665;SDS011;831;48.308;14.294;2022-07-06T11:53:46;13.50;;;12.80;;
1665;SDS011;831;48.308;14.294;2022-07-06T11:56:14;14.70;;;14.00;;
1665;SDS011;831;48.308;14.294;2022-07-06T11:58:41;13.53;;;12.90;;
1665;SDS011;831;48.308;14.294;2022-07-06T12:01:12;13.37;;;12.77;;
1665;SDS011;831;48.308;14.294;2022-07-06T12:03:38;13.20;;;12.60;;
1665;SDS011;831;48.308;14.294;2022-07-06T12:06:06;13.13;;;12.43;;
1665;SDS011;831;48.308;14.294;2022-07-06T12:08:40;13.17;;;12.57;;
1665;SDS011;831;48.308;14.294;2022-07-06T12:11:08;12.90;;;12.30;;
1665;SDS011;831;48.308;14.294;2022-07-06T12:13:36;13.40;;;12.80;;
1665;SDS011;831;48.308;14.294;2022-07-06T12:16:08;14.37;;;13.37;;
1665;SDS011;831;48.308;14.294;2022-07-06T12:18:38;12.47;;;11.97;;
1665;SDS011;831;48.308;14.294;2022-07-06T12:21:06;13.17;;;12.57;;
1665;SDS011;831;48.308;14.294;2022-07-06T12:23:40;13.60;;;12.90;;
1665;SDS011;831;48.308;14.294;2022-07-06T12:26:08;12.97;;;12.30;;
1665;SDS011;831;48.308;14.294;2022-07-06T12:28:35;13.30;;;12.70;;
1665;SDS011;831;48.308;14.294;2022-07-06T12:31:02;12.73;;;12.13;;
1665;SDS011;831;48.308;14.294;2022-07-06T12:33:28;13.83;;;13.13;;
1665;SDS011;831;48.308;14.294;2022-07-06T12:35:55;13.87;;;13.17;;
1665;SDS011;831;48.308;14.294;2022-07-06T12:38:22;12.80;;;12.30;;
1665;SDS011;831;48.308;14.294;2022-07-06T12:40:49;13.20;;;12.40;;
1665;SDS011;831;48.308;14.294;2022-07-06T12:45:59;13.43;;;12.83;;
1665;SDS011;831;48.308;14.294;2022-07-06T12:48:25;13.37;;;12.67;;
1665;SDS011;831;48.308;14.294;2022-07-06T12:50:52;13.20;;;12.57;;
1665;SDS011;831;48.308;14.294;2022-07-06T12:53:23;12.80;;;12.20;;
1665;SDS011;831;48.308;14.294;2022-07-06T12:58:31;12.73;;;12.20;;
1665;SDS011;831;48.308;14.294;2022-07-06T13:00:59;12.80;;;12.20;;
1665;SDS011;831;48.308;14.294;2022-07-06T13:03:26;12.63;;;12.03;;
1665;SDS011;831;48.308;14.294;2022-07-06T13:05:53;13.13;;;12.50;;
1665;SDS011;831;48.308;14.294;2022-07-06T13:08:19;12.73;;;12.20;;
1665;SDS011;831;48.308;14.294;2022-07-06T13:10:46;13.83;;;12.93;;
1665;SDS011;831;48.308;14.294;2022-07-06T13:13:12;12.50;;;11.90;;
1665;SDS011;831;48.308;14.294;2022-07-06T13:15:41;12.80;;;12.20;;
1665;SDS011;831;48.308;14.294;2022-07-06T13:18:09;12.90;;;12.20;;
1665;SDS011;831;48.308;14.294;2022-07-06T13:20:35;13.10;;;12.47;;
1665;SDS011;831;48.308;14.294;2022-07-06T13:23:02;14.40;;;13.47;;
1665;SDS011;831;48.308;14.294;2022-07-06T13:25:28;13.80;;;13.10;;
1665;SDS011;831;48.308;14.294;2022-07-06T13:27:55;14.10;;;13.30;;
1665;SDS011;831;48.308;14.294;2022-07-06T13:30:22;13.50;;;12.67;;
1665;SDS011;831;48.308;14.294;2022-07-06T13:32:48;13.43;;;12.73;;
1665;SDS011;831;48.308;14.294;2022-07-06T13:35:16;13.60;;;12.87;;
1665;SDS011;831;48.308;14.294;2022-07-06T13:37:43;13.70;;;13.10;;
1665;SDS011;831;48.308;14.294;2022-07-06T13:40:12;13.80;;;13.10;;
1665;SDS011;831;48.308;14.294;2022-07-06T13:42:38;13.20;;;12.57;;
1665;SDS011;831;48.308;14.294;2022-07-06T13:45:05;13.40;;;12.60;;
1665;SDS011;831;48.308;14.294;2022-07-06T13:47:32;13.30;;;12.60;;
1665;SDS011;831;48.308;14.294;2022-07-06T13:49:58;13.50;;;12.70;;
1665;SDS011;831;48.308;14.294;2022-07-06T13:52:26;12.97;;;12.37;;
1665;SDS011;831;48.308;14.294;2022-07-06T13:54:53;13.60;;;12.90;;
1665;SDS011;831;48.308;14.294;2022-07-06T13:57:20;13.70;;;13.10;;
1665;SDS011;831;48.308;14.294;2022-07-06T13:59:46;12.87;;;12.27;;
1665;SDS011;831;48.308;14.294;2022-07-06T14:02:13;13.10;;;12.50;;
1665;SDS011;831;48.308;14.294;2022-07-06T14:04:39;13.13;;;12.53;;
1665;SDS011;831;48.308;14.294;2022-07-06T14:07:06;13.40;;;12.70;;
1665;SDS011;831;48.308;14.294;2022-07-06T14:09:35;13.20;;;12.57;;
1665;SDS011;831;48.308;14.294;2022-07-06T14:12:01;13.07;;;12.50;;
1665;SDS011;831;48.308;14.294;2022-07-06T14:14:28;13.17;;;12.57;;
1665;SDS011;831;48.308;14.294;2022-07-06T14:16:55;13.43;;;12.83;;
1665;SDS011;831;48.308;14.294;2022-07-06T14:19:21;13.57;;;12.97;;
1665;SDS011;831;48.308;14.294;2022-07-06T14:21:48;13.47;;;12.77;;
1665;SDS011;831;48.308;14.294;2022-07-06T14:24:14;13.20;;;12.60;;
1665;SDS011;831;48.308;14.294;2022-07-06T14:26:42;13.63;;;12.93;;
1665;SDS011;831;48.308;14.294;2022-07-06T14:29:09;13.63;;;12.93;;
1665;SDS011;831;48.308;14.294;2022-07-06T14:31:36;13.03;;;12.33;;
1665;SDS011;831;48.308;14.294;2022-07-06T14:34:02;13.10;;;12.20;;
1665;SDS011;831;48.308;14.294;2022-07-06T14:36:29;12.60;;;11.90;;
1665;SDS011;831;48.308;14.294;2022-07-06T14:38:58;13.70;;;13.03;;
1665;SDS011;831;48.308;14.294;2022-07-06T14:41:25;13.13;;;12.53;;
1665;SDS011;831;48.308;14.294;2022-07-06T14:43:53;12.80;;;12.10;;
1665;SDS011;831;48.308;14.294;2022-07-06T14:46:20;13.50;;;12.70;;
1665;SDS011;831;48.308;14.294;2022-07-06T14:48:47;13.30;;;12.60;;
1665;SDS011;831;48.308;14.294;2022-07-06T14:51:14;13.47;;;12.77;;
1665;SDS011;831;48.308;14.294;2022-07-06T14:53:40;13.47;;;12.77;;